sensor_id;sensor_type;location;lat;lon;timestamp;P1;durP1;ratioP1;P2;durP2;ratioP2
10715;SDS011;5409;42.620;23.316;2023-06-26T00:00:32;22.58;;;16.25;;
10715;SDS011;5409;42.620;23.316;2023-06-26T00:02:59;20.73;;;16.05;;
10715;SDS011;5409;42.620;23.316;2023-06-26T00:05:25;18.30;;;15.70;;
10715;SDS011;5409;42.620;23.316;2023-06-26T00:07:55;23.23;;;17.83;;
10715;SDS011;5409;42.620;23.316;2023-06-26T00:10:25;20.08;;;16.15;;
10715;SDS011;5409;42.620;23.316;2023-06-26T00:12:52;22.38;;;16.35;;
10715;SDS011;5409;42.620;23.316;2023-06-26T00:15:20;19.70;;;15.50;;
10715;SDS011;5409;42.620;23.316;2023-06-26T00:17:47;20.10;;;15.32;;
10715;SDS011;5409;42.620;23.316;2023-06-26T00:20:13;20.77;;;15.88;;
10715;SDS011;5409;42.620;23.316;2023-06-26T00:22:43;21.02;;;15.15;;
10715;SDS011;5409;42.620;23.316;2023-06-26T00:25:11;18.58;;;14.90;;
10715;SDS011;5409;42.620;23.316;2023-06-26T00:27:38;19.15;;;15.80;;
10715;SDS011;5409;42.620;23.316;2023-06-26T00:30:04;17.17;;;14.52;;
10715;SDS011;5409;42.620;23.316;2023-06-26T00:32:33;22.65;;;15.93;;
10715;SDS011;5409;42.620;23.316;2023-06-26T00:35:00;18.33;;;14.93;;
10715;SDS011;5409;42.620;23.316;2023-06-26T00:37:26;20.63;;;14.88;;
10715;SDS011;5409;42.620;23.316;2023-06-26T00:39:53;16.92;;;14.60;;
10715;SDS011;5409;42.620;23.316;2023-06-26T00:42:20;21.33;;;14.70;;
10715;SDS011;5409;42.620;23.316;2023-06-26T00:44:46;17.48;;;14.13;;
10715;SDS011;5409;42.620;23.316;2023-06-26T00:47:14;16.48;;;13.63;;
10715;SDS011;5409;42.620;23.316;2023-06-26T00:49:44;15.73;;;13.73;;
10715;SDS011;5409;42.620;23.316;2023-06-26T00:52:10;17.63;;;13.90;;
10715;SDS011;5409;42.620;23.316;2023-06-26T00:54:37;17.15;;;13.43;;
10715;SDS011;5409;42.620;23.316;2023-06-26T00:57:04;17.17;;;13.38;;
10715;SDS011;5409;42.620;23.316;2023-06-26T00:59:31;17.58;;;13.93;;
10715;SDS011;5409;42.620;23.316;2023-06-26T01:01:57;18.40;;;14.18;;
10715;SDS011;5409;42.620;23.316;2023-06-26T01:04:24;16.85;;;12.77;;
10715;SDS011;5409;42.620;23.316;2023-06-26T01:06:54;17.15;;;13.05;;
10715;SDS011;5409;42.620;23.316;2023-06-26T01:09:21;13.77;;;12.35;;
10715;SDS011;5409;42.620;23.316;2023-06-26T01:11:49;16.67;;;12.45;;
10715;SDS011;5409;42.620;23.316;2023-06-26T01:14:16;13.45;;;11.80;;
10715;SDS011;5409;42.620;23.316;2023-06-26T01:16:43;15.40;;;12.25;;
10715;SDS011;5409;42.620;23.316;2023-06-26T01:19:13;16.00;;;12.13;;
10715;SDS011;5409;42.620;23.316;2023-06-26T01:21:50;14.35;;;12.27;;
10715;SDS011;5409;42.620;23.316;2023-06-26T01:24:23;13.80;;;11.23;;
10715;SDS011;5409;42.620;23.316;2023-06-26T01:26:57;17.95;;;11.63;;
10715;SDS011;5409;42.620;23.316;2023-06-26T01:29:28;14.88;;;10.95;;
10715;SDS011;5409;42.620;23.316;2023-06-26T01:31:56;13.98;;;11.45;;
10715;SDS011;5409;42.620;23.316;2023-06-26T01:34:23;14.25;;;11.73;;
10715;SDS011;5409;42.620;23.316;2023-06-26T01:36:51;19.35;;;13.40;;
10715;SDS011;5409;42.620;23.316;2023-06-26T01:39:18;13.52;;;11.43;;
10715;SDS011;5409;42.620;23.316;2023-06-26T01:41:45;14.02;;;12.20;;
10715;SDS011;5409;42.620;23.316;2023-06-26T01:44:17;14.10;;;12.30;;
10715;SDS011;5409;42.620;23.316;2023-06-26T01:46:52;15.07;;;11.90;;
10715;SDS011;5409;42.620;23.316;2023-06-26T01:49:28;19.65;;;11.98;;
10715;SDS011;5409;42.620;23.316;2023-06-26T01:52:03;15.93;;;12.52;;
10715;SDS011;5409;42.620;23.316;2023-06-26T01:54:36;16.15;;;12.27;;
10715;SDS011;5409;42.620;23.316;2023-06-26T01:57:08;14.02;;;12.18;;
10715;SDS011;5409;42.620;23.316;2023-06-26T01:59:37;18.75;;;14.05;;
10715;SDS011;5409;42.620;23.316;2023-06-26T02:02:06;16.52;;;14.10;;
10715;SDS011;5409;42.620;23.316;2023-06-26T02:04:34;17.50;;;13.25;;
10715;SDS011;5409;42.620;23.316;2023-06-26T02:07:00;15.27;;;13.68;;
10715;SDS011;5409;42.620;23.316;2023-06-26T02:09:27;16.90;;;13.00;;
10715;SDS011;5409;42.620;23.316;2023-06-26T02:11:54;14.27;;;12.73;;
10715;SDS011;5409;42.620;23.316;2023-06-26T02:14:20;15.98;;;12.50;;
10715;SDS011;5409;42.620;23.316;2023-06-26T02:16:48;15.90;;;12.85;;
10715;SDS011;5409;42.620;23.316;2023-06-26T02:19:15;16.13;;;12.70;;
10715;SDS011;5409;42.620;23.316;2023-06-26T02:21:46;16.50;;;13.50;;
10715;SDS011;5409;42.620;23.316;2023-06-26T02:24:13;14.25;;;12.65;;
10715;SDS011;5409;42.620;23.316;2023-06-26T02:26:40;15.40;;;13.50;;
10715;SDS011;5409;42.620;23.316;2023-06-26T02:29:07;15.00;;;13.35;;
10715;SDS011;5409;42.620;23.316;2023-06-26T02:31:33;14.65;;;13.00;;
10715;SDS011;5409;42.620;23.316;2023-06-26T02:34:01;14.68;;;12.98;;
10715;SDS011;5409;42.620;23.316;2023-06-26T02:36:28;18.88;;;14.48;;
10715;SDS011;5409;42.620;23.316;2023-06-26T02:38:55;17.38;;;14.73;;
10715;SDS011;5409;42.620;23.316;2023-06-26T02:41:22;17.42;;;14.02;;
10715;SDS011;5409;42.620;23.316;2023-06-26T02:43:48;16.55;;;14.43;;
10715;SDS011;5409;42.620;23.316;2023-06-26T02:46:15;16.83;;;15.02;;
10715;SDS011;5409;42.620;23.316;2023-06-26T02:48:42;16.90;;;15.10;;
10715;SDS011;5409;42.620;23.316;2023-06-26T02:51:10;16.60;;;14.65;;
10715;SDS011;5409;42.620;23.316;2023-06-26T02:53:37;18.40;;;15.57;;
10715;SDS011;5409;42.620;23.316;2023-06-26T02:56:03;19.58;;;15.77;;
10715;SDS011;5409;42.620;23.316;2023-06-26T02:58:30;19.70;;;15.25;;
10715;SDS011;5409;42.620;23.316;2023-06-26T03:00:57;19.73;;;16.33;;
10715;SDS011;5409;42.620;23.316;2023-06-26T03:03:24;21.05;;;16.75;;
10715;SDS011;5409;42.620;23.316;2023-06-26T03:05:51;21.42;;;16.75;;
10715;SDS011;5409;42.620;23.316;2023-06-26T03:08:19;20.48;;;16.25;;
10715;SDS011;5409;42.620;23.316;2023-06-26T03:10:45;20.35;;;16.42;;
10715;SDS011;5409;42.620;23.316;2023-06-26T03:13:12;17.58;;;15.73;;
10715;SDS011;5409;42.620;23.316;2023-06-26T03:15:39;18.58;;;16.67;;
10715;SDS011;5409;42.620;23.316;2023-06-26T03:18:06;18.83;;;16.13;;
10715;SDS011;5409;42.620;23.316;2023-06-26T03:20:34;17.52;;;15.73;;
10715;SDS011;5409;42.620;23.316;2023-06-26T03:23:01;19.00;;;16.83;;
10715;SDS011;5409;42.620;23.316;2023-06-26T03:25:30;22.55;;;16.23;;
10715;SDS011;5409;42.620;23.316;2023-06-26T03:27:57;21.48;;;16.27;;
10715;SDS011;5409;42.620;23.316;2023-06-26T03:30:24;20.08;;;16.77;;
10715;SDS011;5409;42.620;23.316;2023-06-26T03:32:50;19.90;;;15.95;;
10715;SDS011;5409;42.620;23.316;2023-06-26T03:35:17;19.50;;;16.08;;
10715;SDS011;5409;42.620;23.316;2023-06-26T03:37:44;18.75;;;16.45;;
10715;SDS011;5409;42.620;23.316;2023-06-26T03:40:11;20.08;;;16.85;;
10715;SDS011;5409;42.620;23.316;2023-06-26T03:42:39;18.35;;;16.45;;
10715;SDS011;5409;42.620;23.316;2023-06-26T03:45:06;20.63;;;16.48;;
10715;SDS011;5409;42.620;23.316;2023-06-26T03:47:34;18.40;;;16.08;;
10715;SDS011;5409;42.620;23.316;2023-06-26T03:50:00;19.38;;;16.13;;
10715;SDS011;5409;42.620;23.316;2023-06-26T03:52:27;18.75;;;16.45;;
10715;SDS011;5409;42.620;23.316;2023-06-26T03:54:55;18.75;;;15.25;;
10715;SDS011;5409;42.620;23.316;2023-06-26T03:57:22;17.90;;;15.95;;
10715;SDS011;5409;42.620;23.316;2023-06-26T03:59:51;17.45;;;15.57;;
10715;SDS011;5409;42.620;23.316;2023-06-26T04:02:18;17.58;;;15.40;;
10715;SDS011;5409;42.620;23.316;2023-06-26T04:04:45;16.10;;;14.40;;
10715;SDS011;5409;42.620;23.316;2023-06-26T04:07:11;16.33;;;14.63;;
10715;SDS011;5409;42.620;23.316;2023-06-26T04:09:38;16.67;;;14.93;;
10715;SDS011;5409;42.620;23.316;2023-06-26T04:12:05;16.25;;;14.55;;
10715;SDS011;5409;42.620;23.316;2023-06-26T04:14:32;16.05;;;14.40;;
10715;SDS011;5409;42.620;23.316;2023-06-26T04:17:00;16.75;;;14.80;;
10715;SDS011;5409;42.620;23.316;2023-06-26T04:19:28;19.13;;;14.32;;
10715;SDS011;5409;42.620;23.316;2023-06-26T04:21:55;16.08;;;14.38;;
10715;SDS011;5409;42.620;23.316;2023-06-26T04:24:22;15.93;;;14.32;;
10715;SDS011;5409;42.620;23.316;2023-06-26T04:26:48;17.00;;;14.27;;
10715;SDS011;5409;42.620;23.316;2023-06-26T04:29:15;15.20;;;13.60;;
10715;SDS011;5409;42.620;23.316;2023-06-26T04:31:42;18.92;;;13.93;;
10715;SDS011;5409;42.620;23.316;2023-06-26T04:34:13;14.75;;;13.15;;
10715;SDS011;5409;42.620;23.316;2023-06-26T04:36:40;14.75;;;13.25;;
10715;SDS011;5409;42.620;23.316;2023-06-26T04:39:13;15.10;;;12.82;;
10715;SDS011;5409;42.620;23.316;2023-06-26T04:41:39;14.63;;;13.18;;
10715;SDS011;5409;42.620;23.316;2023-06-26T04:44:06;14.95;;;12.65;;
10715;SDS011;5409;42.620;23.316;2023-06-26T04:46:33;15.18;;;13.57;;
10715;SDS011;5409;42.620;23.316;2023-06-26T04:49:00;15.77;;;13.98;;
10715;SDS011;5409;42.620;23.316;2023-06-26T04:51:29;16.38;;;13.32;;
10715;SDS011;5409;42.620;23.316;2023-06-26T04:53:56;14.48;;;12.65;;
10715;SDS011;5409;42.620;23.316;2023-06-26T04:56:23;17.27;;;13.48;;
10715;SDS011;5409;42.620;23.316;2023-06-26T04:58:49;14.02;;;12.60;;
10715;SDS011;5409;42.620;23.316;2023-06-26T05:01:16;15.13;;;13.23;;
10715;SDS011;5409;42.620;23.316;2023-06-26T05:03:43;15.00;;;13.38;;
10715;SDS011;5409;42.620;23.316;2023-06-26T05:06:10;14.30;;;12.77;;
10715;SDS011;5409;42.620;23.316;2023-06-26T05:08:38;14.52;;;13.13;;
10715;SDS011;5409;42.620;23.316;2023-06-26T05:11:05;14.50;;;13.05;;
10715;SDS011;5409;42.620;23.316;2023-06-26T05:13:31;13.40;;;12.00;;
10715;SDS011;5409;42.620;23.316;2023-06-26T05:15:58;13.80;;;12.30;;
10715;SDS011;5409;42.620;23.316;2023-06-26T05:18:25;14.40;;;12.77;;
10715;SDS011;5409;42.620;23.316;2023-06-26T05:20:52;15.88;;;12.85;;
10715;SDS011;5409;42.620;23.316;2023-06-26T05:23:19;15.23;;;12.52;;
10715;SDS011;5409;42.620;23.316;2023-06-26T05:25:48;16.45;;;13.43;;
10715;SDS011;5409;42.620;23.316;2023-06-26T05:28:15;14.38;;;12.88;;
10715;SDS011;5409;42.620;23.316;2023-06-26T05:30:42;17.75;;;13.98;;
10715;SDS011;5409;42.620;23.316;2023-06-26T05:33:10;15.88;;;13.77;;
10715;SDS011;5409;42.620;23.316;2023-06-26T05:35:37;14.13;;;12.10;;
10715;SDS011;5409;42.620;23.316;2023-06-26T05:38:05;12.88;;;11.65;;
10715;SDS011;5409;42.620;23.316;2023-06-26T05:40:33;13.35;;;11.95;;
10715;SDS011;5409;42.620;23.316;2023-06-26T05:43:01;13.13;;;11.13;;
10715;SDS011;5409;42.620;23.316;2023-06-26T05:45:29;13.25;;;11.23;;
10715;SDS011;5409;42.620;23.316;2023-06-26T05:47:55;13.63;;;12.23;;
10715;SDS011;5409;42.620;23.316;2023-06-26T05:50:22;14.68;;;11.88;;
10715;SDS011;5409;42.620;23.316;2023-06-26T05:52:50;13.05;;;11.65;;
10715;SDS011;5409;42.620;23.316;2023-06-26T05:55:17;14.70;;;12.93;;
10715;SDS011;5409;42.620;23.316;2023-06-26T05:57:44;13.52;;;12.13;;
10715;SDS011;5409;42.620;23.316;2023-06-26T06:00:14;14.02;;;12.52;;
10715;SDS011;5409;42.620;23.316;2023-06-26T06:02:41;13.70;;;12.10;;
10715;SDS011;5409;42.620;23.316;2023-06-26T06:05:08;13.38;;;12.07;;
10715;SDS011;5409;42.620;23.316;2023-06-26T06:07:35;13.82;;;12.35;;
10715;SDS011;5409;42.620;23.316;2023-06-26T06:10:02;16.48;;;13.18;;
10715;SDS011;5409;42.620;23.316;2023-06-26T06:12:30;16.15;;;12.70;;
10715;SDS011;5409;42.620;23.316;2023-06-26T06:14:56;12.63;;;11.32;;
10715;SDS011;5409;42.620;23.316;2023-06-26T06:17:25;14.20;;;12.70;;
10715;SDS011;5409;42.620;23.316;2023-06-26T06:19:51;13.80;;;12.40;;
10715;SDS011;5409;42.620;23.316;2023-06-26T06:22:18;12.45;;;10.73;;
10715;SDS011;5409;42.620;23.316;2023-06-26T06:24:45;11.98;;;10.77;;
10715;SDS011;5409;42.620;23.316;2023-06-26T06:27:11;12.55;;;10.98;;
10715;SDS011;5409;42.620;23.316;2023-06-26T06:29:38;11.80;;;10.60;;
10715;SDS011;5409;42.620;23.316;2023-06-26T06:32:05;10.85;;;9.40;;
10715;SDS011;5409;42.620;23.316;2023-06-26T06:34:34;13.68;;;10.57;;
10715;SDS011;5409;42.620;23.316;2023-06-26T06:37:01;13.02;;;10.10;;
10715;SDS011;5409;42.620;23.316;2023-06-26T06:39:28;11.25;;;10.15;;
10715;SDS011;5409;42.620;23.316;2023-06-26T06:41:55;12.20;;;11.00;;
10715;SDS011;5409;42.620;23.316;2023-06-26T06:44:22;12.23;;;10.95;;
10715;SDS011;5409;42.620;23.316;2023-06-26T06:46:49;11.40;;;10.18;;
10715;SDS011;5409;42.620;23.316;2023-06-26T06:49:15;12.52;;;10.98;;
10715;SDS011;5409;42.620;23.316;2023-06-26T06:51:43;12.32;;;11.02;;
10715;SDS011;5409;42.620;23.316;2023-06-26T06:54:10;13.27;;;10.93;;
10715;SDS011;5409;42.620;23.316;2023-06-26T06:56:37;11.52;;;10.30;;
10715;SDS011;5409;42.620;23.316;2023-06-26T06:59:03;10.43;;;9.35;;
10715;SDS011;5409;42.620;23.316;2023-06-26T07:01:30;9.85;;;8.85;;
10715;SDS011;5409;42.620;23.316;2023-06-26T07:03:57;9.68;;;8.68;;
10715;SDS011;5409;42.620;23.316;2023-06-26T07:06:23;9.05;;;7.50;;
10715;SDS011;5409;42.620;23.316;2023-06-26T07:08:51;12.35;;;8.23;;
10715;SDS011;5409;42.620;23.316;2023-06-26T07:11:18;10.63;;;8.27;;
10715;SDS011;5409;42.620;23.316;2023-06-26T07:13:45;10.68;;;7.90;;
10715;SDS011;5409;42.620;23.316;2023-06-26T07:16:11;8.20;;;7.40;;
10715;SDS011;5409;42.620;23.316;2023-06-26T07:18:40;8.23;;;7.43;;
10715;SDS011;5409;42.620;23.316;2023-06-26T07:21:07;7.90;;;7.10;;
10715;SDS011;5409;42.620;23.316;2023-06-26T07:23:33;6.93;;;6.05;;
10715;SDS011;5409;42.620;23.316;2023-06-26T07:26:01;9.43;;;6.95;;
10715;SDS011;5409;42.620;23.316;2023-06-26T07:28:28;7.45;;;6.68;;
10715;SDS011;5409;42.620;23.316;2023-06-26T07:30:55;10.45;;;7.43;;
10715;SDS011;5409;42.620;23.316;2023-06-26T07:33:21;9.73;;;6.90;;
10715;SDS011;5409;42.620;23.316;2023-06-26T07:35:48;7.90;;;7.10;;
10715;SDS011;5409;42.620;23.316;2023-06-26T07:38:15;8.77;;;7.30;;
10715;SDS011;5409;42.620;23.316;2023-06-26T07:40:41;8.25;;;7.45;;
10715;SDS011;5409;42.620;23.316;2023-06-26T07:43:10;8.27;;;7.47;;
10715;SDS011;5409;42.620;23.316;2023-06-26T07:45:36;7.20;;;6.47;;
10715;SDS011;5409;42.620;23.316;2023-06-26T07:48:03;9.10;;;6.35;;
10715;SDS011;5409;42.620;23.316;2023-06-26T07:50:32;7.78;;;6.97;;
10715;SDS011;5409;42.620;23.316;2023-06-26T07:52:58;5.55;;;5.05;;
10715;SDS011;5409;42.620;23.316;2023-06-26T07:55:25;7.32;;;5.50;;
10715;SDS011;5409;42.620;23.316;2023-06-26T07:57:52;7.03;;;5.93;;
10715;SDS011;5409;42.620;23.316;2023-06-26T08:00:21;7.85;;;6.35;;
10715;SDS011;5409;42.620;23.316;2023-06-26T08:02:48;6.78;;;5.97;;
10715;SDS011;5409;42.620;23.316;2023-06-26T08:05:15;7.38;;;5.70;;
10715;SDS011;5409;42.620;23.316;2023-06-26T08:07:42;6.38;;;5.78;;
10715;SDS011;5409;42.620;23.316;2023-06-26T08:10:09;5.90;;;5.40;;
10715;SDS011;5409;42.620;23.316;2023-06-26T08:12:36;8.40;;;5.70;;
10715;SDS011;5409;42.620;23.316;2023-06-26T08:15:05;6.03;;;5.43;;
10715;SDS011;5409;42.620;23.316;2023-06-26T08:17:34;6.40;;;5.35;;
10715;SDS011;5409;42.620;23.316;2023-06-26T08:20:01;5.43;;;4.93;;
10715;SDS011;5409;42.620;23.316;2023-06-26T08:22:27;6.22;;;5.18;;
10715;SDS011;5409;42.620;23.316;2023-06-26T08:24:54;5.15;;;4.57;;
10715;SDS011;5409;42.620;23.316;2023-06-26T08:27:21;5.10;;;4.18;;
10715;SDS011;5409;42.620;23.316;2023-06-26T08:29:48;6.78;;;5.18;;
10715;SDS011;5409;42.620;23.316;2023-06-26T08:32:14;5.93;;;4.90;;
10715;SDS011;5409;42.620;23.316;2023-06-26T08:34:42;6.63;;;5.47;;
10715;SDS011;5409;42.620;23.316;2023-06-26T08:37:09;7.13;;;5.28;;
10715;SDS011;5409;42.620;23.316;2023-06-26T08:39:36;6.05;;;5.18;;
10715;SDS011;5409;42.620;23.316;2023-06-26T08:42:03;7.05;;;5.50;;
10715;SDS011;5409;42.620;23.316;2023-06-26T08:44:30;6.82;;;5.80;;
10715;SDS011;5409;42.620;23.316;2023-06-26T08:46:58;6.35;;;5.20;;
10715;SDS011;5409;42.620;23.316;2023-06-26T08:49:28;6.40;;;5.75;;
10715;SDS011;5409;42.620;23.316;2023-06-26T08:52:02;6.28;;;5.18;;
10715;SDS011;5409;42.620;23.316;2023-06-26T08:54:37;5.72;;;4.78;;
10715;SDS011;5409;42.620;23.316;2023-06-26T08:57:13;5.05;;;4.13;;
10715;SDS011;5409;42.620;23.316;2023-06-26T08:59:44;5.00;;;4.50;;
10715;SDS011;5409;42.620;23.316;2023-06-26T09:02:12;5.20;;;4.70;;
10715;SDS011;5409;42.620;23.316;2023-06-26T09:04:39;4.47;;;4.07;;
10715;SDS011;5409;42.620;23.316;2023-06-26T09:07:08;5.45;;;4.88;;
10715;SDS011;5409;42.620;23.316;2023-06-26T09:09:35;5.00;;;4.47;;
10715;SDS011;5409;42.620;23.316;2023-06-26T09:12:03;8.90;;;4.70;;
10715;SDS011;5409;42.620;23.316;2023-06-26T09:14:30;6.30;;;4.63;;
10715;SDS011;5409;42.620;23.316;2023-06-26T09:16:57;5.30;;;3.95;;
10715;SDS011;5409;42.620;23.316;2023-06-26T09:19:24;4.93;;;4.40;;
10715;SDS011;5409;42.620;23.316;2023-06-26T09:21:50;6.38;;;4.40;;
10715;SDS011;5409;42.620;23.316;2023-06-26T09:24:18;5.68;;;4.18;;
10715;SDS011;5409;42.620;23.316;2023-06-26T09:26:46;7.07;;;3.92;;
10715;SDS011;5409;42.620;23.316;2023-06-26T09:29:13;8.30;;;4.20;;
10715;SDS011;5409;42.620;23.316;2023-06-26T09:31:40;9.18;;;4.45;;
10715;SDS011;5409;42.620;23.316;2023-06-26T09:34:08;5.45;;;3.90;;
10715;SDS011;5409;42.620;23.316;2023-06-26T09:36:35;4.22;;;3.75;;
10715;SDS011;5409;42.620;23.316;2023-06-26T09:39:02;4.40;;;4.00;;
10715;SDS011;5409;42.620;23.316;2023-06-26T09:41:34;5.18;;;4.28;;
10715;SDS011;5409;42.620;23.316;2023-06-26T09:44:01;7.57;;;4.32;;
10715;SDS011;5409;42.620;23.316;2023-06-26T09:46:29;5.10;;;3.95;;
10715;SDS011;5409;42.620;23.316;2023-06-26T09:49:01;5.15;;;4.60;;
10715;SDS011;5409;42.620;23.316;2023-06-26T09:51:30;5.97;;;4.70;;
10715;SDS011;5409;42.620;23.316;2023-06-26T09:53:57;5.00;;;4.50;;
10715;SDS011;5409;42.620;23.316;2023-06-26T09:56:24;5.18;;;4.50;;
10715;SDS011;5409;42.620;23.316;2023-06-26T09:58:53;5.55;;;5.05;;
10715;SDS011;5409;42.620;23.316;2023-06-26T10:01:22;5.93;;;4.85;;
10715;SDS011;5409;42.620;23.316;2023-06-26T10:03:49;4.70;;;4.18;;
10715;SDS011;5409;42.620;23.316;2023-06-26T10:06:17;4.72;;;4.05;;
10715;SDS011;5409;42.620;23.316;2023-06-26T10:08:46;4.68;;;4.05;;
10715;SDS011;5409;42.620;23.316;2023-06-26T10:11:15;4.82;;;4.32;;
10715;SDS011;5409;42.620;23.316;2023-06-26T10:13:45;5.78;;;4.53;;
10715;SDS011;5409;42.620;23.316;2023-06-26T10:16:17;6.47;;;4.38;;
10715;SDS011;5409;42.620;23.316;2023-06-26T10:18:49;5.72;;;3.95;;
10715;SDS011;5409;42.620;23.316;2023-06-26T10:21:20;13.60;;;4.40;;
10715;SDS011;5409;42.620;23.316;2023-06-26T10:23:49;4.35;;;3.92;;
10715;SDS011;5409;42.620;23.316;2023-06-26T10:26:19;5.03;;;4.10;;
10715;SDS011;5409;42.620;23.316;2023-06-26T10:28:48;7.97;;;3.83;;
10715;SDS011;5409;42.620;23.316;2023-06-26T10:31:18;5.72;;;4.18;;
10715;SDS011;5409;42.620;23.316;2023-06-26T10:33:47;5.80;;;4.10;;
10715;SDS011;5409;42.620;23.316;2023-06-26T10:36:14;5.57;;;4.13;;
10715;SDS011;5409;42.620;23.316;2023-06-26T10:38:49;5.57;;;4.38;;
10715;SDS011;5409;42.620;23.316;2023-06-26T10:41:19;6.78;;;4.22;;
10715;SDS011;5409;42.620;23.316;2023-06-26T10:43:48;7.95;;;4.70;;
10715;SDS011;5409;42.620;23.316;2023-06-26T10:46:18;8.13;;;4.70;;
10715;SDS011;5409;42.620;23.316;2023-06-26T10:48:57;4.45;;;3.90;;
10715;SDS011;5409;42.620;23.316;2023-06-26T10:51:25;4.78;;;4.30;;
10715;SDS011;5409;42.620;23.316;2023-06-26T10:53:55;7.20;;;5.03;;
10715;SDS011;5409;42.620;23.316;2023-06-26T10:56:24;7.30;;;4.40;;
10715;SDS011;5409;42.620;23.316;2023-06-26T10:59:11;8.57;;;4.57;;
10715;SDS011;5409;42.620;23.316;2023-06-26T11:01:43;8.57;;;4.85;;
10715;SDS011;5409;42.620;23.316;2023-06-26T11:04:12;8.18;;;5.35;;
10715;SDS011;5409;42.620;23.316;2023-06-26T11:06:41;5.40;;;4.90;;
10715;SDS011;5409;42.620;23.316;2023-06-26T11:09:17;5.65;;;4.60;;
10715;SDS011;5409;42.620;23.316;2023-06-26T11:11:56;5.75;;;4.70;;
10715;SDS011;5409;42.620;23.316;2023-06-26T11:14:33;7.78;;;4.13;;
10715;SDS011;5409;42.620;23.316;2023-06-26T11:17:03;6.18;;;5.05;;
10715;SDS011;5409;42.620;23.316;2023-06-26T11:19:30;5.90;;;4.22;;
10715;SDS011;5409;42.620;23.316;2023-06-26T11:22:03;5.57;;;4.80;;
10715;SDS011;5409;42.620;23.316;2023-06-26T11:24:31;4.85;;;4.35;;
10715;SDS011;5409;42.620;23.316;2023-06-26T11:27:02;17.65;;;14.52;;
10715;SDS011;5409;42.620;23.316;2023-06-26T11:29:30;7.03;;;5.00;;
10715;SDS011;5409;42.620;23.316;2023-06-26T11:31:58;5.78;;;5.22;;
10715;SDS011;5409;42.620;23.316;2023-06-26T11:34:33;5.38;;;4.88;;
10715;SDS011;5409;42.620;23.316;2023-06-26T11:37:02;6.63;;;5.15;;
10715;SDS011;5409;42.620;23.316;2023-06-26T11:39:29;6.07;;;4.63;;
10715;SDS011;5409;42.620;23.316;2023-06-26T11:41:56;5.95;;;4.78;;
10715;SDS011;5409;42.620;23.316;2023-06-26T11:44:23;6.90;;;5.18;;
10715;SDS011;5409;42.620;23.316;2023-06-26T11:46:53;5.00;;;4.50;;
10715;SDS011;5409;42.620;23.316;2023-06-26T11:49:22;5.05;;;4.55;;
10715;SDS011;5409;42.620;23.316;2023-06-26T11:51:51;7.13;;;4.60;;
10715;SDS011;5409;42.620;23.316;2023-06-26T11:54:26;8.10;;;4.47;;
10715;SDS011;5409;42.620;23.316;2023-06-26T11:56:56;12.30;;;4.20;;
10715;SDS011;5409;42.620;23.316;2023-06-26T11:59:24;5.30;;;4.60;;
10715;SDS011;5409;42.620;23.316;2023-06-26T12:01:57;5.32;;;4.82;;
10715;SDS011;5409;42.620;23.316;2023-06-26T12:04:25;5.28;;;4.78;;
10715;SDS011;5409;42.620;23.316;2023-06-26T12:06:53;6.47;;;4.28;;
10715;SDS011;5409;42.620;23.316;2023-06-26T12:09:22;4.93;;;4.40;;
10715;SDS011;5409;42.620;23.316;2023-06-26T12:11:51;6.07;;;5.05;;
10715;SDS011;5409;42.620;23.316;2023-06-26T12:14:19;6.70;;;5.07;;
10715;SDS011;5409;42.620;23.316;2023-06-26T12:16:46;6.22;;;4.50;;
10715;SDS011;5409;42.620;23.316;2023-06-26T12:19:13;6.20;;;4.63;;
10715;SDS011;5409;42.620;23.316;2023-06-26T12:21:48;7.20;;;4.63;;
10715;SDS011;5409;42.620;23.316;2023-06-26T12:24:18;4.95;;;4.45;;
10715;SDS011;5409;42.620;23.316;2023-06-26T12:26:46;10.20;;;5.45;;
10715;SDS011;5409;42.620;23.316;2023-06-26T12:29:17;5.38;;;4.40;;
10715;SDS011;5409;42.620;23.316;2023-06-26T12:31:46;4.82;;;4.32;;
10715;SDS011;5409;42.620;23.316;2023-06-26T12:34:17;5.47;;;4.50;;
10715;SDS011;5409;42.620;23.316;2023-06-26T12:36:45;4.70;;;4.22;;
10715;SDS011;5409;42.620;23.316;2023-06-26T12:39:16;4.07;;;3.67;;
10715;SDS011;5409;42.620;23.316;2023-06-26T12:41:44;4.05;;;3.60;;
10715;SDS011;5409;42.620;23.316;2023-06-26T12:44:21;4.55;;;4.15;;
10715;SDS011;5409;42.620;23.316;2023-06-26T12:46:53;6.63;;;4.20;;
10715;SDS011;5409;42.620;23.316;2023-06-26T12:49:28;4.53;;;3.60;;
10715;SDS011;5409;42.620;23.316;2023-06-26T12:51:58;4.40;;;4.00;;
10715;SDS011;5409;42.620;23.316;2023-06-26T12:54:25;4.85;;;4.28;;
10715;SDS011;5409;42.620;23.316;2023-06-26T12:56:51;4.45;;;3.90;;
10715;SDS011;5409;42.620;23.316;2023-06-26T12:59:18;8.07;;;4.32;;
10715;SDS011;5409;42.620;23.316;2023-06-26T13:01:45;5.30;;;4.13;;
10715;SDS011;5409;42.620;23.316;2023-06-26T13:04:12;6.88;;;4.43;;
10715;SDS011;5409;42.620;23.316;2023-06-26T13:06:38;4.93;;;4.15;;
10715;SDS011;5409;42.620;23.316;2023-06-26T13:09:06;5.80;;;4.53;;
10715;SDS011;5409;42.620;23.316;2023-06-26T13:11:33;6.07;;;4.05;;
10715;SDS011;5409;42.620;23.316;2023-06-26T13:14:01;4.97;;;4.47;;
10715;SDS011;5409;42.620;23.316;2023-06-26T13:16:28;5.22;;;4.20;;
10715;SDS011;5409;42.620;23.316;2023-06-26T13:18:55;5.45;;;4.85;;
10715;SDS011;5409;42.620;23.316;2023-06-26T13:21:22;5.55;;;4.63;;
10715;SDS011;5409;42.620;23.316;2023-06-26T13:23:48;5.75;;;4.55;;
10715;SDS011;5409;42.620;23.316;2023-06-26T13:26:16;5.28;;;4.70;;
10715;SDS011;5409;42.620;23.316;2023-06-26T13:28:43;7.18;;;4.85;;
10715;SDS011;5409;42.620;23.316;2023-06-26T13:31:10;8.05;;;5.70;;
10715;SDS011;5409;42.620;23.316;2023-06-26T13:33:37;8.68;;;4.82;;
10715;SDS011;5409;42.620;23.316;2023-06-26T13:36:03;6.43;;;4.63;;
10715;SDS011;5409;42.620;23.316;2023-06-26T13:38:32;6.30;;;5.07;;
10715;SDS011;5409;42.620;23.316;2023-06-26T13:40:59;5.25;;;4.40;;
10715;SDS011;5409;42.620;23.316;2023-06-26T13:43:28;8.43;;;4.85;;
10715;SDS011;5409;42.620;23.316;2023-06-26T13:45:55;7.78;;;4.28;;
10715;SDS011;5409;42.620;23.316;2023-06-26T13:48:22;5.22;;;4.28;;
10715;SDS011;5409;42.620;23.316;2023-06-26T13:50:51;3.95;;;3.55;;
10715;SDS011;5409;42.620;23.316;2023-06-26T13:53:18;4.55;;;4.15;;
10715;SDS011;5409;42.620;23.316;2023-06-26T13:55:45;4.65;;;3.92;;
10715;SDS011;5409;42.620;23.316;2023-06-26T13:58:12;5.20;;;4.13;;
10715;SDS011;5409;42.620;23.316;2023-06-26T14:00:40;7.20;;;4.13;;
10715;SDS011;5409;42.620;23.316;2023-06-26T14:03:10;4.65;;;4.18;;
10715;SDS011;5409;42.620;23.316;2023-06-26T14:05:37;7.10;;;4.40;;
10715;SDS011;5409;42.620;23.316;2023-06-26T14:08:04;9.85;;;4.47;;
10715;SDS011;5409;42.620;23.316;2023-06-26T14:10:33;6.45;;;4.47;;
10715;SDS011;5409;42.620;23.316;2023-06-26T14:13:01;5.72;;;4.45;;
10715;SDS011;5409;42.620;23.316;2023-06-26T14:15:28;7.00;;;4.88;;
10715;SDS011;5409;42.620;23.316;2023-06-26T14:17:56;9.48;;;4.60;;
10715;SDS011;5409;42.620;23.316;2023-06-26T14:20:24;9.48;;;4.15;;
10715;SDS011;5409;42.620;23.316;2023-06-26T14:22:51;6.32;;;4.72;;
10715;SDS011;5409;42.620;23.316;2023-06-26T14:25:17;8.70;;;4.25;;
10715;SDS011;5409;42.620;23.316;2023-06-26T14:27:44;6.07;;;4.95;;
10715;SDS011;5409;42.620;23.316;2023-06-26T14:30:11;5.50;;;4.97;;
10715;SDS011;5409;42.620;23.316;2023-06-26T14:32:38;7.10;;;5.15;;
10715;SDS011;5409;42.620;23.316;2023-06-26T14:35:07;7.00;;;4.80;;
10715;SDS011;5409;42.620;23.316;2023-06-26T14:37:35;7.00;;;5.35;;
10715;SDS011;5409;42.620;23.316;2023-06-26T14:40:05;7.97;;;5.05;;